Time;durP1;ratioP1;P1;durP2;ratioP2;P2;SDS_P1;SDS_P2;PMS_P1;PMS_P2;Temp;Humidity;BMP_temperature;BMP_pressure;BME280_temperature;BME280_humidity;BME280_pressure;Samples;Min_cycle;Max_cycle;Signal;HPM_P1;HPM_P2
2023/01/05 00:00:49;;;;;;;;;;;11.90;99.90;;;;;;5113974;28;19916;-65
2023/01/05 00:03:14;;;;;;;;;;;11.90;99.90;;;;;;5091362;28;19990;-64
2023/01/05 00:05:40;;;;;;;;;;;11.90;99.90;;;;;;5093279;28;20274;-65
2023/01/05 00:08:05;;;;;;;;;;;11.90;99.90;;;;;;5092919;28;19915;-65
2023/01/05 00:24:22;;;;;;;;;;;11.80;99.90;;;;;;5096384;28;20309;-67
2023/01/05 00:26:48;;;;;;;;;;;11.80;99.90;;;;;;5092019;28;19912;-66
2023/01/05 00:29:13;;;;;;;;;;;11.90;99.90;;;;;;5099438;28;19951;-67
2023/01/05 00:31:39;;;;;;;;;;;12.00;99.90;;;;;;5090924;28;19925;-67
2023/01/05 00:34:04;;;;;;;;;;;11.90;99.90;;;;;;5073402;28;19924;-65
2023/01/05 00:36:30;;;;;;;;;;;11.80;99.90;;;;;;5098575;28;20019;-67
2023/01/05 00:38:55;;;;;;;;;;;11.90;99.90;;;;;;5098841;28;20384;-66
2023/01/05 00:41:21;;;;;;;;;;;11.80;99.90;;;;;;5114416;28;20293;-65
2023/01/05 00:43:47;;;;;;;;;;;11.90;99.90;;;;;;5085676;28;20372;-65
2023/01/05 00:46:12;;;;;;;;;;;11.90;99.90;;;;;;5089466;28;19954;-66
2023/01/05 00:48:38;;;;;;;;;;;11.80;99.90;;;;;;5092525;28;19912;-67
2023/01/05 00:51:03;;;;;;;;;;;11.90;99.90;;;;;;5101085;28;20346;-66
2023/01/05 00:53:29;;;;;;;;;;;11.90;99.90;;;;;;5093193;28;20377;-66
2023/01/05 00:55:55;;;;;;;;;;;11.90;99.90;;;;;;5080474;28;20294;-65
2023/01/05 00:58:21;;;;;;;;;;;11.90;99.90;;;;;;5104875;28;19990;-66
2023/01/05 01:00:46;;;;;;;;;;;11.80;99.90;;;;;;5098739;28;20500;-66
2023/01/05 01:03:12;;;;;;;;;;;11.80;99.90;;;;;;5090697;28;20375;-66
2023/01/05 01:05:37;;;;;;;;;;;11.80;99.90;;;;;;5088105;28;19923;-65
2023/01/05 01:08:03;;;;;;;;;;;11.80;99.90;;;;;;5078713;28;19916;-67
2023/01/05 01:10:28;;;;;;;;;;;11.70;99.90;;;;;;5090912;28;19919;-68
2023/01/05 01:12:54;;;;;;;;;;;11.80;99.90;;;;;;5091552;28;19937;-68
2023/01/05 01:15:19;;;;;;;;;;;11.80;99.90;;;;;;5075285;28;19916;-65
2023/01/05 01:17:45;;;;;;;;;;;11.80;99.90;;;;;;5089684;28;19911;-67
2023/01/05 01:20:11;;;;;;;;;;;11.80;99.90;;;;;;5099520;28;20395;-66
2023/01/05 01:22:36;;;;;;;;;;;11.80;99.90;;;;;;5075058;28;19912;-65
2023/01/05 01:25:02;;;;;;;;;;;11.80;99.90;;;;;;5102127;28;20428;-66
2023/01/05 01:27:31;;;;;;;;;;;11.80;99.90;;;;;;5076195;28;19920;-69
2023/01/05 01:29:57;;;;;;;;;;;11.80;99.90;;;;;;5085544;28;19915;-67
2023/01/05 01:32:23;;;;;;;;;;;11.90;99.90;;;;;;5075788;28;19917;-64
2023/01/05 01:34:49;;;;;;;;;;;12.00;99.90;;;;;;5097459;28;19920;-69
2023/01/05 01:37:15;;;;;;;;;;;11.90;99.90;;;;;;5098426;28;19919;-67
2023/01/05 01:39:41;;;;;;;;;;;11.90;99.90;;;;;;5092725;28;19923;-68
2023/01/05 01:42:13;;;;;;;;;;;12.00;99.90;;;;;;5074308;28;20281;-66
2023/01/05 01:44:48;;;;;;;;;;;12.00;99.90;;;;;;5090448;28;20015;-65
2023/01/05 01:47:21;;;;;;;;;;;12.00;99.90;;;;;;5080526;28;20285;-69
2023/01/05 01:49:47;;;;;;;;;;;11.90;99.90;;;;;;5076579;28;20302;-66
2023/01/05 01:52:13;;;;;;;;;;;11.90;99.90;;;;;;5078473;28;19921;-67
2023/01/05 01:54:38;;;;;;;;;;;11.90;99.90;;;;;;5073350;28;19935;-67
2023/01/05 01:57:04;;;;;;;;;;;11.90;99.90;;;;;;5076398;28;19912;-67
2023/01/05 01:59:30;;;;;;;;;;;11.90;99.90;;;;;;5074109;28;19920;-67
2023/01/05 02:01:58;;;;;;;;;;;11.80;99.90;;;;;;5078599;28;19912;-67
2023/01/05 02:04:24;;;;;;;;;;;11.90;99.90;;;;;;5090855;28;19966;-68
2023/01/05 02:06:51;;;;;;;;;;;11.90;99.90;;;;;;5080083;28;19964;-67
2023/01/05 02:09:17;;;;;;;;;;;11.80;99.90;;;;;;5072726;28;20348;-66
2023/01/05 02:11:49;;;;;;;;;;;11.80;99.90;;;;;;5082716;28;19938;-68
2023/01/05 02:14:14;;;;;;;;;;;11.90;99.90;;;;;;5088883;28;20310;-68
2023/01/05 02:16:46;;;;;;;;;;;11.90;99.90;;;;;;5104267;28;19946;-67
2023/01/05 02:19:30;;;;;;;;;;;11.90;99.90;;;;;;5098436;28;19931;-65
2023/01/05 02:22:19;;;;;;;;;;;12.00;99.90;;;;;;5088900;28;20412;-65
2023/01/05 02:25:03;;;;;;;;;;;11.90;99.90;;;;;;5079036;28;19955;-67
2023/01/05 02:27:50;;;;;;;;;;;11.90;99.90;;;;;;5082188;28;19917;-66
2023/01/05 02:30:21;;;;;;;;;;;11.90;99.90;;;;;;5098574;28;19928;-67
2023/01/05 02:32:50;;;;;;;;;;;11.90;99.90;;;;;;5071952;28;19913;-64
2023/01/05 02:35:39;;;;;;;;;;;11.90;99.90;;;;;;5073717;28;20362;-67
2023/01/05 02:38:09;;;;;;;;;;;11.80;99.90;;;;;;5074211;28;19955;-66
2023/01/05 02:40:38;;;;;;;;;;;11.80;99.90;;;;;;5073416;28;20392;-68
2023/01/05 02:43:04;;;;;;;;;;;11.80;99.90;;;;;;5072445;28;19913;-67
2023/01/05 02:45:30;;;;;;;;;;;11.90;99.90;;;;;;5072056;28;20399;-68
2023/01/05 02:47:55;;;;;;;;;;;12.00;99.90;;;;;;5075397;28;20002;-67
2023/01/05 02:50:26;;;;;;;;;;;11.90;99.90;;;;;;5074939;28;19983;-64
2023/01/05 02:52:54;;;;;;;;;;;11.90;99.90;;;;;;5076490;28;19951;-65
2023/01/05 02:55:24;;;;;;;;;;;11.90;99.90;;;;;;5102998;28;19943;-67
2023/01/05 02:57:54;;;;;;;;;;;11.90;99.90;;;;;;5109445;28;20326;-64
2023/01/05 03:00:23;;;;;;;;;;;11.90;99.90;;;;;;5108442;28;19916;-67
2023/01/05 03:02:51;;;;;;;;;;;11.90;99.90;;;;;;5103163;28;19912;-66
2023/01/05 03:05:20;;;;;;;;;;;11.80;99.90;;;;;;5078886;28;19921;-68
2023/01/05 03:07:47;;;;;;;;;;;11.80;99.90;;;;;;5077286;28;19975;-66
2023/01/05 03:15:45;;;;;;;;;;;11.80;99.90;;;;;;5086311;28;19922;-69
2023/01/05 03:18:14;;;;;;;;;;;11.80;99.90;;;;;;5102222;28;19908;-66
2023/01/05 03:20:41;;;;;;;;;;;11.80;99.90;;;;;;5077342;28;19913;-65
2023/01/05 03:37:23;;;;;;;;;;;11.80;99.90;;;;;;5075396;28;19931;-66
2023/01/05 03:39:49;;;;;;;;;;;11.90;99.90;;;;;;5077280;28;20275;-66
2023/01/05 03:42:15;;;;;;;;;;;11.90;99.90;;;;;;5074728;28;19908;-67
2023/01/05 03:44:43;;;;;;;;;;;11.80;99.90;;;;;;5078100;28;20885;-65
2023/01/05 03:47:08;;;;;;;;;;;11.80;99.90;;;;;;5079981;28;20014;-66
2023/01/05 03:49:34;;;;;;;;;;;11.80;99.90;;;;;;5079173;28;20073;-66
2023/01/05 03:52:00;;;;;;;;;;;11.80;99.90;;;;;;5085118;28;19919;-66
2023/01/05 03:54:25;;;;;;;;;;;11.90;99.90;;;;;;5074085;28;20390;-66
2023/01/05 03:56:51;;;;;;;;;;;11.90;99.90;;;;;;5077725;28;19942;-66
2023/01/05 03:59:16;;;;;;;;;;;11.90;99.90;;;;;;5076169;28;19971;-65
2023/01/05 04:01:42;;;;;;;;;;;11.90;99.90;;;;;;5076357;28;19916;-66
2023/01/05 04:04:08;;;;;;;;;;;11.90;99.90;;;;;;5075728;28;19921;-66
2023/01/05 04:06:33;;;;;;;;;;;11.90;99.90;;;;;;5078431;28;19920;-64
2023/01/05 04:08:59;;;;;;;;;;;11.90;99.90;;;;;;5084341;28;19919;-66
2023/01/05 04:11:24;;;;;;;;;;;11.80;99.90;;;;;;5082773;28;19935;-66
2023/01/05 04:13:50;;;;;;;;;;;11.80;99.90;;;;;;5078874;28;20064;-66
2023/01/05 04:16:16;;;;;;;;;;;11.90;99.90;;;;;;5092922;28;20281;-67
2023/01/05 04:18:41;;;;;;;;;;;11.80;99.90;;;;;;5096958;28;19912;-65
2023/01/05 04:21:07;;;;;;;;;;;11.80;99.90;;;;;;5092595;28;19908;-67
2023/01/05 04:23:34;;;;;;;;;;;11.80;99.90;;;;;;5093282;28;20496;-67
2023/01/05 04:25:59;;;;;;;;;;;11.70;99.90;;;;;;5089129;28;20015;-64
2023/01/05 04:28:25;;;;;;;;;;;11.80;99.90;;;;;;5072661;28;19940;-67
2023/01/05 04:30:52;;;;;;;;;;;11.70;99.90;;;;;;5072258;28;20330;-66
2023/01/05 04:33:17;;;;;;;;;;;11.80;99.90;;;;;;5082552;28;19912;-66
2023/01/05 04:35:43;;;;;;;;;;;11.80;99.90;;;;;;5089152;28;19935;-67
2023/01/05 04:38:09;;;;;;;;;;;11.70;99.90;;;;;;5092010;28;19912;-67
2023/01/05 04:40:35;;;;;;;;;;;11.70;99.90;;;;;;5092120;28;19909;-67
2023/01/05 04:43:00;;;;;;;;;;;11.70;99.90;;;;;;5078151;28;20386;-67
2023/01/05 04:45:26;;;;;;;;;;;11.70;99.90;;;;;;5076571;28;19916;-65
2023/01/05 04:47:52;;;;;;;;;;;11.70;99.90;;;;;;5088049;28;19920;-67
2023/01/05 04:50:18;;;;;;;;;;;11.70;99.90;;;;;;5103534;28;20368;-69
2023/01/05 04:52:43;;;;;;;;;;;11.70;99.90;;;;;;5098303;28;19957;-67
2023/01/05 04:55:09;;;;;;;;;;;11.70;99.90;;;;;;5101518;28;19961;-66
2023/01/05 04:57:35;;;;;;;;;;;11.70;99.90;;;;;;5077902;28;20309;-66
2023/01/05 05:00:01;;;;;;;;;;;11.70;99.90;;;;;;5063631;28;19920;-69
2023/01/05 05:02:26;;;;;;;;;;;11.70;99.90;;;;;;5094441;28;19924;-67
2023/01/05 05:04:52;;;;;;;;;;;11.80;99.90;;;;;;5091687;28;20200;-65
2023/01/05 05:07:18;;;;;;;;;;;11.80;99.90;;;;;;5074024;28;19916;-67
2023/01/05 05:09:43;;;;;;;;;;;11.80;99.90;;;;;;5080748;28;20395;-68
2023/01/05 05:12:09;;;;;;;;;;;11.80;99.90;;;;;;5074276;28;19927;-67
2023/01/05 05:14:34;;;;;;;;;;;11.70;99.90;;;;;;5075367;28;19935;-68
2023/01/05 05:17:00;;;;;;;;;;;11.70;99.90;;;;;;5077980;28;19912;-66
2023/01/05 05:19:25;;;;;;;;;;;11.70;99.90;;;;;;5104465;28;19912;-67
2023/01/05 05:21:51;;;;;;;;;;;11.70;99.90;;;;;;5076009;28;20282;-64
2023/01/05 05:24:17;;;;;;;;;;;11.70;99.90;;;;;;5090640;28;20035;-67
2023/01/05 05:26:42;;;;;;;;;;;11.70;99.90;;;;;;5103761;28;19919;-65
2023/01/05 05:29:08;;;;;;;;;;;11.70;99.90;;;;;;5111648;28;19911;-66
2023/01/05 05:31:33;;;;;;;;;;;11.70;99.90;;;;;;5100343;28;19908;-66
2023/01/05 05:33:59;;;;;;;;;;;11.70;99.90;;;;;;5093785;28;19925;-66
2023/01/05 05:36:24;;;;;;;;;;;11.70;99.90;;;;;;5082029;28;20297;-67
2023/01/05 05:38:50;;;;;;;;;;;11.70;99.90;;;;;;5076505;28;19959;-67
2023/01/05 05:41:16;;;;;;;;;;;11.70;99.90;;;;;;5092862;28;20011;-66
2023/01/05 05:43:41;;;;;;;;;;;11.70;99.90;;;;;;5078085;28;19912;-66
2023/01/05 05:46:07;;;;;;;;;;;11.70;99.90;;;;;;5087179;28;19916;-67
2023/01/05 05:48:32;;;;;;;;;;;11.70;99.90;;;;;;5071392;28;19916;-64
2023/01/05 05:50:58;;;;;;;;;;;11.60;99.90;;;;;;5074530;28;19916;-66
2023/01/05 05:53:23;;;;;;;;;;;11.60;99.90;;;;;;5081255;28;19954;-66
2023/01/05 05:55:49;;;;;;;;;;;11.60;99.90;;;;;;5093371;28;19966;-67
2023/01/05 05:58:15;;;;;;;;;;;11.70;99.90;;;;;;5074544;28;19958;-66
2023/01/05 06:00:41;;;;;;;;;;;11.70;99.90;;;;;;5088120;28;19920;-67
2023/01/05 06:03:07;;;;;;;;;;;11.80;99.90;;;;;;5072726;28;19974;-68
2023/01/05 06:05:32;;;;;;;;;;;11.70;99.90;;;;;;5075284;28;19916;-65
2023/01/05 06:07:58;;;;;;;;;;;11.70;99.90;;;;;;5074440;28;19913;-68
2023/01/05 06:10:23;;;;;;;;;;;11.70;99.90;;;;;;5062841;28;19912;-69
2023/01/05 06:12:49;;;;;;;;;;;11.70;99.90;;;;;;5074042;28;19925;-67
2023/01/05 06:15:14;;;;;;;;;;;11.70;99.90;;;;;;5074602;28;19923;-69
2023/01/05 06:17:40;;;;;;;;;;;11.70;99.90;;;;;;5097973;28;20112;-67
2023/01/05 06:20:07;;;;;;;;;;;11.70;99.90;;;;;;5094582;28;19927;-68
2023/01/05 06:22:33;;;;;;;;;;;11.60;99.90;;;;;;5104862;28;19990;-66
2023/01/05 06:24:58;;;;;;;;;;;11.70;99.90;;;;;;5103609;28;20512;-67
2023/01/05 06:27:24;;;;;;;;;;;11.70;99.90;;;;;;5070287;28;19956;-67
2023/01/05 06:29:49;;;;;;;;;;;11.70;99.90;;;;;;5069904;28;19916;-65
2023/01/05 06:32:15;;;;;;;;;;;11.60;99.90;;;;;;5069896;28;20364;-69
2023/01/05 06:34:40;;;;;;;;;;;11.60;99.90;;;;;;5097497;28;20642;-69
2023/01/05 06:37:06;;;;;;;;;;;11.60;99.90;;;;;;5110508;28;19994;-67
2023/01/05 06:39:32;;;;;;;;;;;11.60;99.90;;;;;;5091878;28;20379;-67
2023/01/05 06:41:57;;;;;;;;;;;11.60;99.90;;;;;;5104423;28;19912;-67
2023/01/05 06:44:23;;;;;;;;;;;11.60;99.90;;;;;;5075762;28;19920;-67
2023/01/05 06:46:48;;;;;;;;;;;11.50;99.90;;;;;;5071136;28;20370;-67
2023/01/05 06:49:14;;;;;;;;;;;11.50;99.90;;;;;;5074898;28;19924;-66
2023/01/05 06:51:39;;;;;;;;;;;11.50;99.90;;;;;;5083417;28;19916;-67
2023/01/05 06:54:05;;;;;;;;;;;11.50;99.90;;;;;;5081176;28;21574;-67
2023/01/05 06:56:31;;;;;;;;;;;11.50;99.90;;;;;;5075020;28;19911;-66
2023/01/05 06:58:56;;;;;;;;;;;11.60;99.90;;;;;;5073181;28;19971;-68
2023/01/05 07:01:22;;;;;;;;;;;11.60;99.90;;;;;;5074402;28;19923;-68
2023/01/05 07:03:47;;;;;;;;;;;11.60;99.90;;;;;;5076061;28;19966;-68
2023/01/05 07:06:14;;;;;;;;;;;11.60;99.90;;;;;;5061035;28;19920;-66
2023/01/05 07:08:39;;;;;;;;;;;11.60;99.90;;;;;;5071591;28;19975;-66
2023/01/05 07:11:05;;;;;;;;;;;11.60;99.90;;;;;;5088675;28;19924;-63
2023/01/05 07:13:30;;;;;;;;;;;11.50;99.90;;;;;;5075033;28;20296;-67
2023/01/05 07:15:56;;;;;;;;;;;11.60;99.90;;;;;;5071731;28;19927;-67
2023/01/05 07:18:21;;;;;;;;;;;11.60;99.90;;;;;;5079356;28;19912;-65
2023/01/05 07:20:47;;;;;;;;;;;11.50;99.90;;;;;;5088821;28;20373;-67
2023/01/05 07:23:13;;;;;;;;;;;11.50;99.90;;;;;;5097564;28;19919;-66
2023/01/05 07:25:38;;;;;;;;;;;11.50;99.90;;;;;;5097747;28;19908;-66
2023/01/05 07:28:04;;;;;;;;;;;11.60;99.90;;;;;;5091376;28;19916;-67
2023/01/05 07:30:29;;;;;;;;;;;11.60;99.90;;;;;;5109532;28;19916;-67
2023/01/05 07:32:58;;;;;;;;;;;11.60;99.90;;;;;;5090610;28;20354;-66
2023/01/05 07:35:24;;;;;;;;;;;11.60;99.90;;;;;;5089002;28;19923;-67
2023/01/05 07:37:49;;;;;;;;;;;11.60;99.90;;;;;;5089628;28;19908;-66
2023/01/05 07:40:15;;;;;;;;;;;11.50;99.90;;;;;;5089441;28;20005;-66
2023/01/05 07:42:41;;;;;;;;;;;11.50;99.90;;;;;;5090219;28;19912;-67
2023/01/05 07:45:07;;;;;;;;;;;11.50;99.90;;;;;;5087007;28;20545;-67
2023/01/05 07:47:33;;;;;;;;;;;11.50;99.90;;;;;;5093457;28;19947;-65
2023/01/05 07:49:58;;;;;;;;;;;11.50;99.90;;;;;;5093155;28;19913;-67
2023/01/05 07:52:24;;;;;;;;;;;11.60;99.90;;;;;;5091972;28;19934;-66
2023/01/05 07:54:49;;;;;;;;;;;11.60;99.90;;;;;;5096771;28;20416;-65
2023/01/05 07:57:15;;;;;;;;;;;11.60;99.90;;;;;;5094140;28;19916;-66
2023/01/05 07:59:41;;;;;;;;;;;11.50;99.90;;;;;;5092627;28;19912;-66
2023/01/05 08:02:07;;;;;;;;;;;11.60;99.90;;;;;;5091221;28;19948;-66
2023/01/05 08:04:33;;;;;;;;;;;11.60;99.90;;;;;;5084187;28;19916;-67
2023/01/05 08:07:00;;;;;;;;;;;11.60;99.90;;;;;;5092881;28;19916;-67
2023/01/05 08:12:10;;;;;;;;;;;11.60;99.90;;;;;;5110796;28;19934;-65
2023/01/05 08:14:36;;;;;;;;;;;11.60;99.90;;;;;;5089558;28;20014;-68
2023/01/05 08:17:01;;;;;;;;;;;11.60;99.90;;;;;;5088841;28;19913;-69
2023/01/05 08:19:27;;;;;;;;;;;11.60;99.90;;;;;;5090329;28;20345;-67
2023/01/05 08:21:52;;;;;;;;;;;11.60;99.90;;;;;;5088902;28;19966;-66
2023/01/05 08:24:18;;;;;;;;;;;11.50;99.90;;;;;;5076292;28;19934;-67
2023/01/05 08:26:43;;;;;;;;;;;11.50;99.90;;;;;;5094759;28;19919;-66
2023/01/05 08:29:09;;;;;;;;;;;11.50;99.90;;;;;;5090367;28;19912;-65
2023/01/05 08:31:36;;;;;;;;;;;11.50;99.90;;;;;;5094357;28;19935;-67
2023/01/05 08:34:02;;;;;;;;;;;11.50;99.90;;;;;;5093592;28;19963;-65
2023/01/05 08:36:30;;;;;;;;;;;11.50;99.90;;;;;;5091790;28;20380;-67
2023/01/05 08:38:56;;;;;;;;;;;11.50;99.90;;;;;;5102802;28;20489;-68
2023/01/05 08:41:23;;;;;;;;;;;11.50;99.90;;;;;;5108676;28;20299;-68
2023/01/05 08:43:52;;;;;;;;;;;11.50;99.90;;;;;;5092498;28;19912;-68
2023/01/05 08:46:18;;;;;;;;;;;11.50;99.90;;;;;;5091545;28;19916;-67
2023/01/05 08:48:46;;;;;;;;;;;11.40;99.90;;;;;;5097732;28;20065;-66
2023/01/05 08:51:12;;;;;;;;;;;11.30;99.90;;;;;;5076928;28;19934;-66
2023/01/05 08:53:38;;;;;;;;;;;11.30;99.90;;;;;;5109559;28;20452;-68
2023/01/05 08:56:03;;;;;;;;;;;11.30;99.90;;;;;;5093863;28;19915;-65
2023/01/05 08:58:29;;;;;;;;;;;11.30;99.90;;;;;;5090100;28;19963;-66
2023/01/05 09:00:54;;;;;;;;;;;11.30;99.90;;;;;;5092079;28;19912;-66
2023/01/05 09:03:20;;;;;;;;;;;11.30;99.90;;;;;;5099624;28;20293;-62
2023/01/05 09:05:45;;;;;;;;;;;11.30;99.90;;;;;;5098100;28;19924;-66
2023/01/05 09:08:11;;;;;;;;;;;11.20;99.90;;;;;;5065148;28;19978;-63
2023/01/05 09:10:36;;;;;;;;;;;11.10;99.90;;;;;;5091627;28;19915;-65
2023/01/05 09:13:02;;;;;;;;;;;11.10;99.90;;;;;;5104086;28;20008;-64
2023/01/05 09:15:27;;;;;;;;;;;11.10;99.90;;;;;;5093412;28;19962;-65
2023/01/05 09:17:53;;;;;;;;;;;11.10;99.90;;;;;;5080306;28;19911;-68
2023/01/05 09:20:19;;;;;;;;;;;11.10;99.90;;;;;;5090098;28;20370;-62
2023/01/05 09:22:44;;;;;;;;;;;11.00;99.90;;;;;;5086088;28;19912;-61
2023/01/05 09:25:10;;;;;;;;;;;11.00;99.90;;;;;;5088923;28;19919;-62
2023/01/05 09:27:36;;;;;;;;;;;10.90;99.90;;;;;;5100628;28;19918;-68
2023/01/05 09:30:02;;;;;;;;;;;10.90;99.90;;;;;;5092896;28;19999;-67
2023/01/05 09:32:28;;;;;;;;;;;10.90;99.90;;;;;;5089451;28;19991;-68
2023/01/05 09:34:53;;;;;;;;;;;10.80;99.90;;;;;;5090634;28;20377;-65
2023/01/05 09:37:19;;;;;;;;;;;10.80;99.90;;;;;;5093674;28;20001;-67
2023/01/05 09:39:45;;;;;;;;;;;10.90;99.90;;;;;;5093248;28;19908;-64
2023/01/05 09:42:12;;;;;;;;;;;11.00;99.90;;;;;;5107535;28;19912;-65
2023/01/05 09:44:43;;;;;;;;;;;11.00;99.90;;;;;;5111040;28;19965;-66
2023/01/05 09:47:12;;;;;;;;;;;11.10;99.90;;;;;;5095100;28;19905;-65
2023/01/05 09:49:39;;;;;;;;;;;11.10;99.90;;;;;;5099096;28;19938;-66
2023/01/05 09:52:08;;;;;;;;;;;11.10;99.90;;;;;;5093548;28;19912;-66
2023/01/05 09:54:34;;;;;;;;;;;11.00;99.90;;;;;;5089261;28;20283;-60
2023/01/05 09:56:59;;;;;;;;;;;11.10;99.90;;;;;;5091533;28;19937;-63
2023/01/05 09:59:28;;;;;;;;;;;11.10;99.90;;;;;;5107249;28;19918;-65
2023/01/05 10:01:55;;;;;;;;;;;11.20;99.90;;;;;;5095866;28;19920;-61
2023/01/05 10:04:21;;;;;;;;;;;11.20;99.90;;;;;;5106112;28;19911;-63
2023/01/05 10:06:50;;;;;;;;;;;11.30;99.90;;;;;;5104345;28;19967;-63
2023/01/05 10:09:17;;;;;;;;;;;11.40;99.90;;;;;;5110264;28;19908;-62
2023/01/05 10:14:41;;;;;;;;;;;11.50;99.90;;;;;;5090200;28;20006;-66
2023/01/05 10:17:10;;;;;;;;;;;11.60;99.90;;;;;;5081051;28;19912;-64
2023/01/05 10:19:36;;;;;;;;;;;11.60;99.90;;;;;;5090977;28;20281;-63
2023/01/05 10:22:07;;;;;;;;;;;11.70;99.90;;;;;;5074521;28;19912;-64
2023/01/05 10:24:59;;;;;;;;;;;11.70;99.90;;;;;;5093184;28;19919;-60
2023/01/05 10:27:31;;;;;;;;;;;11.60;99.90;;;;;;5095623;28;19954;-64
2023/01/05 10:30:04;;;;;;;;;;;11.60;99.90;;;;;;5090342;28;19974;-64
2023/01/05 10:32:29;;;;;;;;;;;11.70;99.90;;;;;;5094385;28;20023;-65
2023/01/05 10:35:01;;;;;;;;;;;11.70;99.90;;;;;;5108540;28;20002;-64
2023/01/05 10:37:29;;;;;;;;;;;11.70;99.90;;;;;;5110989;28;20277;-63
2023/01/05 10:39:58;;;;;;;;;;;11.70;99.90;;;;;;5099619;28;19938;-63
2023/01/05 10:42:44;;;;;;;;;;;11.70;99.90;;;;;;5072000;28;19913;-65
2023/01/05 10:45:12;;;;;;;;;;;11.80;99.90;;;;;;5106591;28;19916;-64
2023/01/05 10:47:38;;;;;;;;;;;11.80;99.90;;;;;;5094564;28;20002;-64
2023/01/05 10:50:21;;;;;;;;;;;11.80;99.90;;;;;;5081981;28;19916;-62
2023/01/05 10:52:46;;;;;;;;;;;11.80;99.90;;;;;;5094423;28;20016;-65
2023/01/05 10:55:14;;;;;;;;;;;11.80;99.90;;;;;;5089693;28;19920;-63
2023/01/05 10:57:40;;;;;;;;;;;11.90;99.90;;;;;;5090404;28;20357;-63
2023/01/05 11:00:05;;;;;;;;;;;11.90;99.90;;;;;;5099744;28;19924;-65
2023/01/05 11:02:34;;;;;;;;;;;11.90;99.90;;;;;;5087699;28;19947;-65
2023/01/05 11:05:04;;;;;;;;;;;11.90;99.90;;;;;;5085443;28;20485;-65
2023/01/05 11:07:29;;;;;;;;;;;11.80;99.90;;;;;;5091654;28;20038;-65
2023/01/05 11:09:55;;;;;;;;;;;11.90;99.90;;;;;;5099694;28;20354;-64
2023/01/05 11:12:22;;;;;;;;;;;11.80;99.90;;;;;;5101702;28;20513;-64
2023/01/05 11:14:52;;;;;;;;;;;11.70;99.90;;;;;;5099311;28;19923;-64
2023/01/05 11:17:19;;;;;;;;;;;11.70;99.90;;;;;;5096597;28;20297;-64
2023/01/05 11:19:48;;;;;;;;;;;11.70;99.90;;;;;;5089804;28;19962;-64
2023/01/05 11:22:28;;;;;;;;;;;11.70;99.90;;;;;;5088535;28;19917;-63
2023/01/05 11:25:11;;;;;;;;;;;11.70;99.90;;;;;;5095879;28;19912;-63
2023/01/05 11:27:37;;;;;;;;;;;11.60;99.90;;;;;;5106778;28;19919;-65
2023/01/05 11:30:14;;;;;;;;;;;11.70;99.90;;;;;;5095346;28;19919;-63
2023/01/05 11:32:43;;;;;;;;;;;11.60;99.90;;;;;;5094722;28;19916;-62
2023/01/05 11:35:30;;;;;;;;;;;11.60;99.90;;;;;;5099805;28;20327;-66
2023/01/05 11:37:56;;;;;;;;;;;11.60;99.90;;;;;;5107347;28;19965;-64
2023/01/05 11:40:25;;;;;;;;;;;11.60;99.90;;;;;;5105720;28;19920;-64
2023/01/05 11:42:51;;;;;;;;;;;11.60;99.90;;;;;;5093701;28;19912;-65
2023/01/05 11:45:28;;;;;;;;;;;11.70;99.90;;;;;;5101739;28;20080;-67
2023/01/05 11:47:55;;;;;;;;;;;11.70;99.90;;;;;;5105527;28;19909;-67
2023/01/05 11:50:26;;;;;;;;;;;11.70;99.90;;;;;;5091126;28;19973;-64
2023/01/05 11:52:52;;;;;;;;;;;11.70;99.90;;;;;;5090499;28;19935;-67
2023/01/05 11:55:35;;;;;;;;;;;11.70;99.90;;;;;;5107272;28;19923;-67
2023/01/05 11:58:19;;;;;;;;;;;11.70;99.90;;;;;;5093634;28;19936;-67
2023/01/05 12:00:53;;;;;;;;;;;11.70;99.90;;;;;;5089783;28;20407;-68
2023/01/05 12:03:24;;;;;;;;;;;11.60;99.90;;;;;;5106613;28;20308;-66
2023/01/05 12:05:55;;;;;;;;;;;11.60;99.90;;;;;;5113880;28;19967;-66
2023/01/05 12:08:26;;;;;;;;;;;11.70;99.90;;;;;;5104516;28;20036;-66
2023/01/05 12:10:54;;;;;;;;;;;11.60;99.90;;;;;;5090783;28;19954;-65
2023/01/05 12:13:19;;;;;;;;;;;11.70;99.90;;;;;;5081341;28;19966;-63
2023/01/05 12:16:07;;;;;;;;;;;11.70;99.90;;;;;;5099460;28;19912;-65
2023/01/05 12:18:51;;;;;;;;;;;11.70;99.90;;;;;;5093108;28;20381;-66
2023/01/05 12:21:21;;;;;;;;;;;11.70;99.90;;;;;;5092922;28;20010;-65
2023/01/05 12:23:56;;;;;;;;;;;11.70;99.90;;;;;;5103815;28;20014;-65
2023/01/05 12:26:28;;;;;;;;;;;11.80;99.90;;;;;;5089479;28;20258;-66
2023/01/05 12:29:12;;;;;;;;;;;11.80;99.90;;;;;;5093290;28;19909;-64
2023/01/05 12:31:38;;;;;;;;;;;11.80;99.90;;;;;;5093565;28;19916;-67
2023/01/05 12:34:22;;;;;;;;;;;11.80;99.90;;;;;;5095212;28;20272;-67
2023/01/05 12:37:06;;;;;;;;;;;11.80;99.90;;;;;;5107385;28;19916;-66
2023/01/05 12:39:38;;;;;;;;;;;11.80;99.90;;;;;;5092807;28;19908;-66
2023/01/05 12:42:22;;;;;;;;;;;11.80;99.90;;;;;;5091614;28;19912;-66
2023/01/05 12:44:53;;;;;;;;;;;11.70;99.90;;;;;;5111668;28;20011;-66
2023/01/05 12:47:37;;;;;;;;;;;11.70;99.90;;;;;;5101960;28;19912;-69
2023/01/05 12:50:02;;;;;;;;;;;11.70;99.90;;;;;;5096649;28;19931;-66
2023/01/05 12:52:31;;;;;;;;;;;11.70;99.90;;;;;;5102155;28;19912;-65
2023/01/05 12:54:57;;;;;;;;;;;11.70;99.90;;;;;;5075868;28;20032;-68
2023/01/05 12:57:31;;;;;;;;;;;11.60;99.90;;;;;;5102227;28;19970;-68
2023/01/05 12:59:59;;;;;;;;;;;11.60;99.90;;;;;;5102892;28;19912;-66
2023/01/05 13:02:25;;;;;;;;;;;11.60;99.90;;;;;;5103324;28;20365;-65
2023/01/05 13:04:53;;;;;;;;;;;11.50;99.90;;;;;;5098605;28;19967;-65
2023/01/05 13:07:22;;;;;;;;;;;11.50;99.90;;;;;;5101358;28;20312;-66
2023/01/05 13:09:56;;;;;;;;;;;11.60;99.90;;;;;;5102190;28;19915;-63
2023/01/05 13:12:22;;;;;;;;;;;11.50;99.90;;;;;;5090137;28;19918;-65
2023/01/05 13:14:55;;;;;;;;;;;11.60;99.90;;;;;;5074021;28;20318;-68
2023/01/05 13:17:26;;;;;;;;;;;11.60;99.90;;;;;;5083989;28;20348;-64
2023/01/05 13:20:04;;;;;;;;;;;11.60;99.90;;;;;;5111907;28;19938;-65
2023/01/05 13:22:31;;;;;;;;;;;11.50;99.90;;;;;;5110478;28;19915;-66
2023/01/05 13:25:00;;;;;;;;;;;11.50;99.90;;;;;;5089876;28;19923;-66
2023/01/05 13:27:28;;;;;;;;;;;11.40;99.90;;;;;;5097097;28;20008;-63
2023/01/05 13:29:58;;;;;;;;;;;11.40;99.90;;;;;;5087871;28;19959;-67
2023/01/05 13:32:39;;;;;;;;;;;11.40;99.90;;;;;;5089563;28;19935;-66
2023/01/05 13:35:21;;;;;;;;;;;11.40;99.90;;;;;;5085410;28;19955;-66
2023/01/05 13:37:58;;;;;;;;;;;11.50;99.90;;;;;;5098780;28;20258;-66
2023/01/05 13:40:30;;;;;;;;;;;11.40;99.90;;;;;;5101461;28;20020;-65
2023/01/05 13:43:11;;;;;;;;;;;11.40;99.90;;;;;;5091197;28;19912;-66
2023/01/05 13:45:48;;;;;;;;;;;11.30;99.90;;;;;;5098616;28;19911;-66
2023/01/05 13:48:43;;;;;;;;;;;11.40;99.90;;;;;;5111270;28;19965;-63
2023/01/05 13:51:21;;;;;;;;;;;11.30;99.90;;;;;;5023907;28;19953;-65
2023/01/05 13:53:47;;;;;;;;;;;11.30;99.90;;;;;;5093191;28;19915;-64
2023/01/05 13:56:26;;;;;;;;;;;11.30;99.90;;;;;;5094216;28;19966;-65
2023/01/05 13:58:57;;;;;;;;;;;11.30;99.90;;;;;;5090161;28;19922;-66
2023/01/05 14:01:36;;;;;;;;;;;11.30;99.90;;;;;;5087320;28;19927;-64
2023/01/05 14:04:02;;;;;;;;;;;11.30;99.90;;;;;;5081824;28;20409;-67
2023/01/05 14:06:33;;;;;;;;;;;11.30;99.90;;;;;;5083216;28;19959;-64
2023/01/05 14:09:03;;;;;;;;;;;11.30;99.90;;;;;;5081560;28;19912;-63
2023/01/05 14:11:28;;;;;;;;;;;11.30;99.90;;;;;;5080618;28;19913;-63
2023/01/05 14:13:58;;;;;;;;;;;11.30;99.90;;;;;;5108837;28;19914;-64
2023/01/05 14:16:42;;;;;;;;;;;11.30;99.90;;;;;;5095796;28;19916;-65
2023/01/05 14:19:19;;;;;;;;;;;11.30;99.90;;;;;;5085415;28;19919;-63
2023/01/05 14:21:47;;;;;;;;;;;11.30;99.90;;;;;;5084601;28;19916;-67
2023/01/05 14:24:36;;;;;;;;;;;11.20;99.90;;;;;;5095653;28;19946;-63
2023/01/05 14:27:05;;;;;;;;;;;11.20;99.90;;;;;;5081961;28;20003;-64
2023/01/05 14:29:48;;;;;;;;;;;11.20;99.90;;;;;;5081352;28;19921;-66
2023/01/05 14:32:17;;;;;;;;;;;11.20;99.90;;;;;;5092075;28;19912;-65
2023/01/05 14:34:46;;;;;;;;;;;11.30;99.90;;;;;;5077795;28;19920;-65
2023/01/05 14:37:35;;;;;;;;;;;11.20;99.90;;;;;;5085829;28;19913;-64
2023/01/05 14:40:01;;;;;;;;;;;11.20;99.90;;;;;;5081124;28;20357;-62
2023/01/05 14:42:34;;;;;;;;;;;11.20;99.90;;;;;;5089978;28;19928;-64
2023/01/05 14:45:02;;;;;;;;;;;11.20;99.90;;;;;;5081540;28;20362;-64
2023/01/05 14:47:39;;;;;;;;;;;11.20;99.90;;;;;;5081822;28;19946;-64
2023/01/05 14:50:05;;;;;;;;;;;11.20;99.90;;;;;;5072022;28;19927;-65
2023/01/05 14:52:50;;;;;;;;;;;11.20;99.90;;;;;;5081710;28;19916;-66
2023/01/05 14:55:24;;;;;;;;;;;11.20;99.90;;;;;;5084150;28;19940;-64
2023/01/05 14:57:51;;;;;;;;;;;11.20;99.90;;;;;;5086160;28;20318;-67
2023/01/05 15:00:31;;;;;;;;;;;11.20;99.90;;;;;;5085292;28;19955;-65
2023/01/05 15:02:57;;;;;;;;;;;11.10;99.90;;;;;;5104095;28;20010;-66